<?xml version="1.0" encoding="UTF-8" standalone="no" ?>
<gpx xmlns="http://www.topografix.com/GPX/1/1" xmlns:xsi="http://www.w3.org/2001/XMLSchema-instance" xsi:schemaLocation="http://www.topografix.com/GPX/1/1 http://www.topografix.com/GPX/1/1/gpx.xsd" version="1.1" creator="VisuGPX - https://www.visugpx.com">
  <metadata>
    <name>Labyrinthe   Bouaye</name>
    <desc><![CDATA[Labyrinthe   Bouaye]]></desc>
  </metadata>
  <trk>
    <name><![CDATA[2015-08-12 20:08]]></name>
    <desc><![CDATA[<h1>OruxMaps</h1><br /><hr align="center" width="480" style="height: 2px; width: 517px"/><h2>Nom: 2015-08-12 20:08</h2><br /><p>Temps de départ: 08/12/2015 20:09</p><p>Temps d'arrivée: 08/12/2015 21:08</p><p>Distance: 11,8km (00:58)</p><p>Temps déplacement: 00:58</p><p>Vitesse moyenne: 12,1km/h</p><p>Vitesse moyenne: 12,2km/h</p><p>Vitess Max.: 22,5km/h</p><p>Altitude minimale: -29m</p><p>Altitude maximale: 119m</p><p>Vitesse d'élévation: 505,7m/h</p><p>Vitesse de descente: -726,7m/h</p><p>Gain Altitude: 193m</p><p>Perte Altitude: -196m</p><p>Temps d'élévation: 00:22</p><p>Temps de descente: 00:16</p><hr align="center" width="480" style="height: 2px; width: 517px"/>]]></desc>
    <trkseg>
      <trkpt lat="47.16888" lon="-1.62883">
        <ele>33.6</ele>
        <time>2015-08-12T18:09:51Z</time>
      </trkpt>
      <trkpt lat="47.16905" lon="-1.62897">
        <ele>33.8</ele>
        <time>2015-08-12T18:09:57Z</time>
      </trkpt>
      <trkpt lat="47.16922" lon="-1.62911">
        <ele>33.8</ele>
        <time>2015-08-12T18:10:03Z</time>
      </trkpt>
      <trkpt lat="47.1694" lon="-1.62918">
        <ele>33.7</ele>
        <time>2015-08-12T18:10:09Z</time>
      </trkpt>
      <trkpt lat="47.16959" lon="-1.6292">
        <ele>33.6</ele>
        <time>2015-08-12T18:10:15Z</time>
      </trkpt>
      <trkpt lat="47.1698" lon="-1.62925">
        <ele>33.7</ele>
        <time>2015-08-12T18:10:22Z</time>
      </trkpt>
      <trkpt lat="47.17001" lon="-1.62926">
        <ele>34.2</ele>
        <time>2015-08-12T18:10:28Z</time>
      </trkpt>
      <trkpt lat="47.17025" lon="-1.62927">
        <ele>34.4</ele>
        <time>2015-08-12T18:10:32Z</time>
      </trkpt>
      <trkpt lat="47.17048" lon="-1.62925">
        <ele>34</ele>
        <time>2015-08-12T18:10:35Z</time>
      </trkpt>
      <trkpt lat="47.17069" lon="-1.62924">
        <ele>33.7</ele>
        <time>2015-08-12T18:10:39Z</time>
      </trkpt>
      <trkpt lat="47.17086" lon="-1.62915">
        <ele>33.6</ele>
        <time>2015-08-12T18:10:43Z</time>
      </trkpt>
      <trkpt lat="47.17105" lon="-1.62902">
        <ele>33.5</ele>
        <time>2015-08-12T18:10:48Z</time>
      </trkpt>
      <trkpt lat="47.17121" lon="-1.62891">
        <ele>33.1</ele>
        <time>2015-08-12T18:10:54Z</time>
      </trkpt>
      <trkpt lat="47.17135" lon="-1.62869">
        <ele>32.7</ele>
        <time>2015-08-12T18:11:03Z</time>
      </trkpt>
      <trkpt lat="47.17148" lon="-1.62846">
        <ele>32.4</ele>
        <time>2015-08-12T18:11:09Z</time>
      </trkpt>
      <trkpt lat="47.17166" lon="-1.62838">
        <ele>31.9</ele>
        <time>2015-08-12T18:11:15Z</time>
      </trkpt>
      <trkpt lat="47.17182" lon="-1.62817">
        <ele>31.5</ele>
        <time>2015-08-12T18:11:21Z</time>
      </trkpt>
      <trkpt lat="47.17196" lon="-1.62794">
        <ele>31.4</ele>
        <time>2015-08-12T18:11:26Z</time>
      </trkpt>
      <trkpt lat="47.17212" lon="-1.62775">
        <ele>31.1</ele>
        <time>2015-08-12T18:11:32Z</time>
      </trkpt>
      <trkpt lat="47.1723" lon="-1.62772">
        <ele>30.5</ele>
        <time>2015-08-12T18:11:40Z</time>
      </trkpt>
      <trkpt lat="47.17243" lon="-1.62793">
        <ele>30.2</ele>
        <time>2015-08-12T18:11:46Z</time>
      </trkpt>
      <trkpt lat="47.1726" lon="-1.62812">
        <ele>29.5</ele>
        <time>2015-08-12T18:11:52Z</time>
      </trkpt>
      <trkpt lat="47.17279" lon="-1.62817">
        <ele>28.8</ele>
        <time>2015-08-12T18:11:57Z</time>
      </trkpt>
      <trkpt lat="47.17294" lon="-1.62832">
        <ele>28.2</ele>
        <time>2015-08-12T18:12:02Z</time>
      </trkpt>
      <trkpt lat="47.17308" lon="-1.62851">
        <ele>27.5</ele>
        <time>2015-08-12T18:12:07Z</time>
      </trkpt>
      <trkpt lat="47.17322" lon="-1.6287">
        <ele>26.8</ele>
        <time>2015-08-12T18:12:12Z</time>
      </trkpt>
      <trkpt lat="47.17333" lon="-1.62893">
        <ele>26.1</ele>
        <time>2015-08-12T18:12:18Z</time>
      </trkpt>
      <trkpt lat="47.17326" lon="-1.6292">
        <ele>25.2</ele>
        <time>2015-08-12T18:12:26Z</time>
      </trkpt>
      <trkpt lat="47.17318" lon="-1.62946">
        <ele>24.5</ele>
        <time>2015-08-12T18:12:34Z</time>
      </trkpt>
      <trkpt lat="47.17301" lon="-1.62967">
        <ele>24</ele>
        <time>2015-08-12T18:12:39Z</time>
      </trkpt>
      <trkpt lat="47.17283" lon="-1.62989">
        <ele>23.3</ele>
        <time>2015-08-12T18:12:44Z</time>
      </trkpt>
      <trkpt lat="47.17266" lon="-1.63003">
        <ele>22.7</ele>
        <time>2015-08-12T18:12:51Z</time>
      </trkpt>
      <trkpt lat="47.17246" lon="-1.6303">
        <ele>21.7</ele>
        <time>2015-08-12T18:13:03Z</time>
      </trkpt>
      <trkpt lat="47.17232" lon="-1.63048">
        <ele>21.1</ele>
        <time>2015-08-12T18:13:10Z</time>
      </trkpt>
      <trkpt lat="47.17215" lon="-1.63067">
        <ele>20.4</ele>
        <time>2015-08-12T18:13:17Z</time>
      </trkpt>
      <trkpt lat="47.172" lon="-1.63082">
        <ele>19.8</ele>
        <time>2015-08-12T18:13:24Z</time>
      </trkpt>
      <trkpt lat="47.17184" lon="-1.63098">
        <ele>19.3</ele>
        <time>2015-08-12T18:13:30Z</time>
      </trkpt>
      <trkpt lat="47.17164" lon="-1.63105">
        <ele>18.7</ele>
        <time>2015-08-12T18:13:38Z</time>
      </trkpt>
      <trkpt lat="47.17143" lon="-1.63109">
        <ele>18.4</ele>
        <time>2015-08-12T18:13:43Z</time>
      </trkpt>
      <trkpt lat="47.17124" lon="-1.63117">
        <ele>17.9</ele>
        <time>2015-08-12T18:13:46Z</time>
      </trkpt>
      <trkpt lat="47.17105" lon="-1.63127">
        <ele>17.4</ele>
        <time>2015-08-12T18:13:53Z</time>
      </trkpt>
      <trkpt lat="47.17086" lon="-1.63142">
        <ele>16.7</ele>
        <time>2015-08-12T18:14:00Z</time>
      </trkpt>
      <trkpt lat="47.17067" lon="-1.6315">
        <ele>16.4</ele>
        <time>2015-08-12T18:14:06Z</time>
      </trkpt>
      <trkpt lat="47.17047" lon="-1.63155">
        <ele>16</ele>
        <time>2015-08-12T18:14:14Z</time>
      </trkpt>
      <trkpt lat="47.1703" lon="-1.63167">
        <ele>15.7</ele>
        <time>2015-08-12T18:14:19Z</time>
      </trkpt>
      <trkpt lat="47.17011" lon="-1.63176">
        <ele>15.3</ele>
        <time>2015-08-12T18:14:26Z</time>
      </trkpt>
      <trkpt lat="47.16994" lon="-1.63193">
        <ele>15</ele>
        <time>2015-08-12T18:14:32Z</time>
      </trkpt>
      <trkpt lat="47.16979" lon="-1.63215">
        <ele>14.6</ele>
        <time>2015-08-12T18:14:39Z</time>
      </trkpt>
      <trkpt lat="47.16967" lon="-1.63236">
        <ele>14.2</ele>
        <time>2015-08-12T18:14:47Z</time>
      </trkpt>
      <trkpt lat="47.1695" lon="-1.63244">
        <ele>14</ele>
        <time>2015-08-12T18:14:53Z</time>
      </trkpt>
      <trkpt lat="47.16934" lon="-1.63259">
        <ele>13.8</ele>
        <time>2015-08-12T18:14:59Z</time>
      </trkpt>
      <trkpt lat="47.16921" lon="-1.63279">
        <ele>13.6</ele>
        <time>2015-08-12T18:15:06Z</time>
      </trkpt>
      <trkpt lat="47.16908" lon="-1.63297">
        <ele>13.1</ele>
        <time>2015-08-12T18:15:13Z</time>
      </trkpt>
      <trkpt lat="47.16898" lon="-1.6332">
        <ele>12.6</ele>
        <time>2015-08-12T18:15:19Z</time>
      </trkpt>
      <trkpt lat="47.16883" lon="-1.63342">
        <ele>12</ele>
        <time>2015-08-12T18:15:29Z</time>
      </trkpt>
      <trkpt lat="47.16872" lon="-1.63365">
        <ele>11.5</ele>
        <time>2015-08-12T18:15:33Z</time>
      </trkpt>
      <trkpt lat="47.16855" lon="-1.63389">
        <ele>11.2</ele>
        <time>2015-08-12T18:15:38Z</time>
      </trkpt>
      <trkpt lat="47.16845" lon="-1.63413">
        <ele>10.9</ele>
        <time>2015-08-12T18:15:45Z</time>
      </trkpt>
      <trkpt lat="47.16832" lon="-1.63438">
        <ele>10.6</ele>
        <time>2015-08-12T18:15:51Z</time>
      </trkpt>
      <trkpt lat="47.16819" lon="-1.63462">
        <ele>10.6</ele>
        <time>2015-08-12T18:15:55Z</time>
      </trkpt>
      <trkpt lat="47.16804" lon="-1.6348">
        <ele>10.4</ele>
        <time>2015-08-12T18:16:00Z</time>
      </trkpt>
      <trkpt lat="47.16791" lon="-1.63499">
        <ele>10.1</ele>
        <time>2015-08-12T18:16:05Z</time>
      </trkpt>
      <trkpt lat="47.16779" lon="-1.6352">
        <ele>9.9</ele>
        <time>2015-08-12T18:16:09Z</time>
      </trkpt>
      <trkpt lat="47.16771" lon="-1.63545">
        <ele>9.5</ele>
        <time>2015-08-12T18:16:15Z</time>
      </trkpt>
      <trkpt lat="47.16777" lon="-1.63576">
        <ele>10</ele>
        <time>2015-08-12T18:16:21Z</time>
      </trkpt>
      <trkpt lat="47.1679" lon="-1.63596">
        <ele>10.4</ele>
        <time>2015-08-12T18:16:25Z</time>
      </trkpt>
      <trkpt lat="47.16807" lon="-1.63604">
        <ele>10.2</ele>
        <time>2015-08-12T18:16:30Z</time>
      </trkpt>
      <trkpt lat="47.16826" lon="-1.63604">
        <ele>10.4</ele>
        <time>2015-08-12T18:16:36Z</time>
      </trkpt>
      <trkpt lat="47.16847" lon="-1.63606">
        <ele>10.3</ele>
        <time>2015-08-12T18:16:43Z</time>
      </trkpt>
      <trkpt lat="47.16864" lon="-1.63617">
        <ele>9.8</ele>
        <time>2015-08-12T18:16:52Z</time>
      </trkpt>
      <trkpt lat="47.16883" lon="-1.63625">
        <ele>9.6</ele>
        <time>2015-08-12T18:16:59Z</time>
      </trkpt>
      <trkpt lat="47.169" lon="-1.6364">
        <ele>7.5</ele>
        <time>2015-08-12T18:17:07Z</time>
      </trkpt>
      <trkpt lat="47.16919" lon="-1.6365">
        <ele>6.4</ele>
        <time>2015-08-12T18:17:14Z</time>
      </trkpt>
      <trkpt lat="47.16939" lon="-1.63657">
        <ele>5.1</ele>
        <time>2015-08-12T18:17:22Z</time>
      </trkpt>
      <trkpt lat="47.16958" lon="-1.63661">
        <ele>4.6</ele>
        <time>2015-08-12T18:17:28Z</time>
      </trkpt>
      <trkpt lat="47.16974" lon="-1.63673">
        <ele>2.4</ele>
        <time>2015-08-12T18:17:33Z</time>
      </trkpt>
      <trkpt lat="47.16993" lon="-1.63673">
        <ele>30</ele>
        <time>2015-08-12T18:17:40Z</time>
      </trkpt>
      <trkpt lat="47.17014" lon="-1.63676">
        <ele>-4</ele>
        <time>2015-08-12T18:17:46Z</time>
      </trkpt>
      <trkpt lat="47.17034" lon="-1.63682">
        <ele>-5.5</ele>
        <time>2015-08-12T18:17:52Z</time>
      </trkpt>
      <trkpt lat="47.17053" lon="-1.63689">
        <ele>-9.1</ele>
        <time>2015-08-12T18:17:57Z</time>
      </trkpt>
      <trkpt lat="47.17066" lon="-1.6371">
        <ele>-12.3</ele>
        <time>2015-08-12T18:18:03Z</time>
      </trkpt>
      <trkpt lat="47.17072" lon="-1.6374">
        <ele>-16.5</ele>
        <time>2015-08-12T18:18:10Z</time>
      </trkpt>
      <trkpt lat="47.17077" lon="-1.6377">
        <ele>-18.5</ele>
        <time>2015-08-12T18:18:16Z</time>
      </trkpt>
      <trkpt lat="47.17081" lon="-1.63797">
        <ele>-20.7</ele>
        <time>2015-08-12T18:18:22Z</time>
      </trkpt>
      <trkpt lat="47.1709" lon="-1.63826">
        <ele>-22.9</ele>
        <time>2015-08-12T18:18:28Z</time>
      </trkpt>
      <trkpt lat="47.17098" lon="-1.63851">
        <ele>-24.7</ele>
        <time>2015-08-12T18:18:33Z</time>
      </trkpt>
      <trkpt lat="47.17107" lon="-1.63876">
        <ele>-25.7</ele>
        <time>2015-08-12T18:18:38Z</time>
      </trkpt>
      <trkpt lat="47.17116" lon="-1.63899">
        <ele>-26.8</ele>
        <time>2015-08-12T18:18:43Z</time>
      </trkpt>
      <trkpt lat="47.17125" lon="-1.63925">
        <ele>-27.9</ele>
        <time>2015-08-12T18:18:50Z</time>
      </trkpt>
      <trkpt lat="47.17124" lon="-1.63951">
        <ele>-28.9</ele>
        <time>2015-08-12T18:18:55Z</time>
      </trkpt>
      <trkpt lat="47.1712" lon="-1.6398">
        <ele>-29.3</ele>
        <time>2015-08-12T18:19:00Z</time>
      </trkpt>
      <trkpt lat="47.1712" lon="-1.64008">
        <ele>-26</ele>
        <time>2015-08-12T18:19:04Z</time>
      </trkpt>
      <trkpt lat="47.17122" lon="-1.6404">
        <ele>-20.5</ele>
        <time>2015-08-12T18:19:08Z</time>
      </trkpt>
      <trkpt lat="47.1712" lon="-1.64068">
        <ele>-20.6</ele>
        <time>2015-08-12T18:19:13Z</time>
      </trkpt>
      <trkpt lat="47.17115" lon="-1.64097">
        <ele>-21</ele>
        <time>2015-08-12T18:19:20Z</time>
      </trkpt>
      <trkpt lat="47.17114" lon="-1.64124">
        <ele>-17.5</ele>
        <time>2015-08-12T18:19:26Z</time>
      </trkpt>
      <trkpt lat="47.17115" lon="-1.64151">
        <ele>-16.3</ele>
        <time>2015-08-12T18:19:32Z</time>
      </trkpt>
      <trkpt lat="47.17116" lon="-1.64178">
        <ele>-15.3</ele>
        <time>2015-08-12T18:19:39Z</time>
      </trkpt>
      <trkpt lat="47.17112" lon="-1.64204">
        <ele>-14.7</ele>
        <time>2015-08-12T18:19:46Z</time>
      </trkpt>
      <trkpt lat="47.17109" lon="-1.64232">
        <ele>-13.5</ele>
        <time>2015-08-12T18:19:54Z</time>
      </trkpt>
      <trkpt lat="47.17108" lon="-1.64259">
        <ele>-12.8</ele>
        <time>2015-08-12T18:20:02Z</time>
      </trkpt>
      <trkpt lat="47.17108" lon="-1.64288">
        <ele>-11</ele>
        <time>2015-08-12T18:20:11Z</time>
      </trkpt>
      <trkpt lat="47.17105" lon="-1.64314">
        <ele>-9.9</ele>
        <time>2015-08-12T18:20:18Z</time>
      </trkpt>
      <trkpt lat="47.17098" lon="-1.64344">
        <ele>-8.6</ele>
        <time>2015-08-12T18:20:25Z</time>
      </trkpt>
      <trkpt lat="47.17094" lon="-1.64371">
        <ele>-7.8</ele>
        <time>2015-08-12T18:20:31Z</time>
      </trkpt>
      <trkpt lat="47.17088" lon="-1.64396">
        <ele>-5.6</ele>
        <time>2015-08-12T18:20:34Z</time>
      </trkpt>
      <trkpt lat="47.17081" lon="-1.64423">
        <ele>-3.6</ele>
        <time>2015-08-12T18:20:39Z</time>
      </trkpt>
      <trkpt lat="47.17076" lon="-1.64451">
        <ele>-2.6</ele>
        <time>2015-08-12T18:20:45Z</time>
      </trkpt>
      <trkpt lat="47.17072" lon="-1.64478">
        <ele>-2</ele>
        <time>2015-08-12T18:20:51Z</time>
      </trkpt>
      <trkpt lat="47.1707" lon="-1.64505">
        <ele>-0.8</ele>
        <time>2015-08-12T18:20:59Z</time>
      </trkpt>
      <trkpt lat="47.17062" lon="-1.64532">
        <ele>0.1</ele>
        <time>2015-08-12T18:21:05Z</time>
      </trkpt>
      <trkpt lat="47.17056" lon="-1.64559">
        <ele>0.7</ele>
        <time>2015-08-12T18:21:11Z</time>
      </trkpt>
      <trkpt lat="47.17056" lon="-1.64585">
        <ele>1</ele>
        <time>2015-08-12T18:21:17Z</time>
      </trkpt>
      <trkpt lat="47.17058" lon="-1.64615">
        <ele>1.1</ele>
        <time>2015-08-12T18:21:24Z</time>
      </trkpt>
      <trkpt lat="47.17055" lon="-1.64641">
        <ele>1</ele>
        <time>2015-08-12T18:21:29Z</time>
      </trkpt>
      <trkpt lat="47.17048" lon="-1.64669">
        <ele>0.8</ele>
        <time>2015-08-12T18:21:34Z</time>
      </trkpt>
      <trkpt lat="47.17041" lon="-1.64696">
        <ele>0.7</ele>
        <time>2015-08-12T18:21:39Z</time>
      </trkpt>
      <trkpt lat="47.1704" lon="-1.64725">
        <ele>0.8</ele>
        <time>2015-08-12T18:21:44Z</time>
      </trkpt>
      <trkpt lat="47.17043" lon="-1.64751">
        <ele>1</ele>
        <time>2015-08-12T18:21:49Z</time>
      </trkpt>
      <trkpt lat="47.17049" lon="-1.64782">
        <ele>1.2</ele>
        <time>2015-08-12T18:21:55Z</time>
      </trkpt>
      <trkpt lat="47.17057" lon="-1.64806">
        <ele>1.3</ele>
        <time>2015-08-12T18:22:00Z</time>
      </trkpt>
      <trkpt lat="47.17064" lon="-1.64833">
        <ele>1.7</ele>
        <time>2015-08-12T18:22:06Z</time>
      </trkpt>
      <trkpt lat="47.17067" lon="-1.64863">
        <ele>2.1</ele>
        <time>2015-08-12T18:22:12Z</time>
      </trkpt>
      <trkpt lat="47.17067" lon="-1.64893">
        <ele>2.5</ele>
        <time>2015-08-12T18:22:18Z</time>
      </trkpt>
      <trkpt lat="47.17072" lon="-1.64922">
        <ele>3.1</ele>
        <time>2015-08-12T18:22:25Z</time>
      </trkpt>
      <trkpt lat="47.17077" lon="-1.64955">
        <ele>7.6</ele>
        <time>2015-08-12T18:22:31Z</time>
      </trkpt>
      <trkpt lat="47.17081" lon="-1.64982">
        <ele>8.9</ele>
        <time>2015-08-12T18:22:37Z</time>
      </trkpt>
      <trkpt lat="47.17086" lon="-1.6501">
        <ele>10.6</ele>
        <time>2015-08-12T18:22:43Z</time>
      </trkpt>
      <trkpt lat="47.1709" lon="-1.65036">
        <ele>12.6</ele>
        <time>2015-08-12T18:22:49Z</time>
      </trkpt>
      <trkpt lat="47.17096" lon="-1.65066">
        <ele>14.4</ele>
        <time>2015-08-12T18:22:56Z</time>
      </trkpt>
      <trkpt lat="47.17099" lon="-1.65092">
        <ele>16.9</ele>
        <time>2015-08-12T18:23:01Z</time>
      </trkpt>
      <trkpt lat="47.17102" lon="-1.65121">
        <ele>18.1</ele>
        <time>2015-08-12T18:23:08Z</time>
      </trkpt>
      <trkpt lat="47.17104" lon="-1.6515">
        <ele>19.7</ele>
        <time>2015-08-12T18:23:14Z</time>
      </trkpt>
      <trkpt lat="47.17109" lon="-1.65178">
        <ele>22.2</ele>
        <time>2015-08-12T18:23:21Z</time>
      </trkpt>
      <trkpt lat="47.17113" lon="-1.65207">
        <ele>25.4</ele>
        <time>2015-08-12T18:23:27Z</time>
      </trkpt>
      <trkpt lat="47.17112" lon="-1.65234">
        <ele>27.3</ele>
        <time>2015-08-12T18:23:32Z</time>
      </trkpt>
      <trkpt lat="47.17115" lon="-1.65262">
        <ele>32.8</ele>
        <time>2015-08-12T18:23:37Z</time>
      </trkpt>
      <trkpt lat="47.17105" lon="-1.65285">
        <ele>34.2</ele>
        <time>2015-08-12T18:23:43Z</time>
      </trkpt>
      <trkpt lat="47.17099" lon="-1.65311">
        <ele>37.7</ele>
        <time>2015-08-12T18:23:50Z</time>
      </trkpt>
      <trkpt lat="47.17102" lon="-1.65338">
        <ele>40.6</ele>
        <time>2015-08-12T18:23:56Z</time>
      </trkpt>
      <trkpt lat="47.17116" lon="-1.65357">
        <ele>42</ele>
        <time>2015-08-12T18:24:03Z</time>
      </trkpt>
      <trkpt lat="47.17118" lon="-1.65387">
        <ele>43.3</ele>
        <time>2015-08-12T18:24:10Z</time>
      </trkpt>
      <trkpt lat="47.17118" lon="-1.65414">
        <ele>44.7</ele>
        <time>2015-08-12T18:24:16Z</time>
      </trkpt>
      <trkpt lat="47.17117" lon="-1.65443">
        <ele>45.5</ele>
        <time>2015-08-12T18:24:22Z</time>
      </trkpt>
      <trkpt lat="47.17114" lon="-1.65472">
        <ele>46.7</ele>
        <time>2015-08-12T18:24:28Z</time>
      </trkpt>
      <trkpt lat="47.1711" lon="-1.655">
        <ele>48</ele>
        <time>2015-08-12T18:24:35Z</time>
      </trkpt>
      <trkpt lat="47.17104" lon="-1.65528">
        <ele>48.9</ele>
        <time>2015-08-12T18:24:41Z</time>
      </trkpt>
      <trkpt lat="47.17095" lon="-1.65552">
        <ele>49.9</ele>
        <time>2015-08-12T18:24:48Z</time>
      </trkpt>
      <trkpt lat="47.17084" lon="-1.65576">
        <ele>51.1</ele>
        <time>2015-08-12T18:24:55Z</time>
      </trkpt>
      <trkpt lat="47.17072" lon="-1.65598">
        <ele>52.2</ele>
        <time>2015-08-12T18:25:03Z</time>
      </trkpt>
      <trkpt lat="47.1706" lon="-1.65622">
        <ele>53</ele>
        <time>2015-08-12T18:25:10Z</time>
      </trkpt>
      <trkpt lat="47.17047" lon="-1.65644">
        <ele>53.4</ele>
        <time>2015-08-12T18:25:17Z</time>
      </trkpt>
      <trkpt lat="47.17035" lon="-1.65664">
        <ele>54.2</ele>
        <time>2015-08-12T18:25:23Z</time>
      </trkpt>
      <trkpt lat="47.17021" lon="-1.65687">
        <ele>55.2</ele>
        <time>2015-08-12T18:25:30Z</time>
      </trkpt>
      <trkpt lat="47.17008" lon="-1.65706">
        <ele>56.2</ele>
        <time>2015-08-12T18:25:36Z</time>
      </trkpt>
      <trkpt lat="47.16992" lon="-1.65726">
        <ele>57.1</ele>
        <time>2015-08-12T18:25:42Z</time>
      </trkpt>
      <trkpt lat="47.16976" lon="-1.6574">
        <ele>57.8</ele>
        <time>2015-08-12T18:25:48Z</time>
      </trkpt>
      <trkpt lat="47.16975" lon="-1.65771">
        <ele>58.4</ele>
        <time>2015-08-12T18:25:55Z</time>
      </trkpt>
      <trkpt lat="47.16965" lon="-1.65796">
        <ele>59.2</ele>
        <time>2015-08-12T18:26:01Z</time>
      </trkpt>
      <trkpt lat="47.16956" lon="-1.65821">
        <ele>59.8</ele>
        <time>2015-08-12T18:26:07Z</time>
      </trkpt>
      <trkpt lat="47.16943" lon="-1.65845">
        <ele>60.7</ele>
        <time>2015-08-12T18:26:14Z</time>
      </trkpt>
      <trkpt lat="47.16932" lon="-1.65866">
        <ele>61.2</ele>
        <time>2015-08-12T18:26:20Z</time>
      </trkpt>
      <trkpt lat="47.16916" lon="-1.6589">
        <ele>61</ele>
        <time>2015-08-12T18:26:25Z</time>
      </trkpt>
      <trkpt lat="47.16904" lon="-1.65912">
        <ele>61.4</ele>
        <time>2015-08-12T18:26:30Z</time>
      </trkpt>
      <trkpt lat="47.16893" lon="-1.65934">
        <ele>61.8</ele>
        <time>2015-08-12T18:26:36Z</time>
      </trkpt>
      <trkpt lat="47.16879" lon="-1.65958">
        <ele>62.5</ele>
        <time>2015-08-12T18:26:42Z</time>
      </trkpt>
      <trkpt lat="47.16879" lon="-1.6593">
        <ele>63.1</ele>
        <time>2015-08-12T18:26:57Z</time>
      </trkpt>
      <trkpt lat="47.1689" lon="-1.65906">
        <ele>63.1</ele>
        <time>2015-08-12T18:27:03Z</time>
      </trkpt>
      <trkpt lat="47.16892" lon="-1.65876">
        <ele>63.8</ele>
        <time>2015-08-12T18:27:10Z</time>
      </trkpt>
      <trkpt lat="47.16889" lon="-1.6585">
        <ele>64.3</ele>
        <time>2015-08-12T18:27:16Z</time>
      </trkpt>
      <trkpt lat="47.16883" lon="-1.65822">
        <ele>64.6</ele>
        <time>2015-08-12T18:27:23Z</time>
      </trkpt>
      <trkpt lat="47.16877" lon="-1.65794">
        <ele>65.3</ele>
        <time>2015-08-12T18:27:30Z</time>
      </trkpt>
      <trkpt lat="47.16872" lon="-1.65766">
        <ele>66.2</ele>
        <time>2015-08-12T18:27:38Z</time>
      </trkpt>
      <trkpt lat="47.16865" lon="-1.65741">
        <ele>67.6</ele>
        <time>2015-08-12T18:27:45Z</time>
      </trkpt>
      <trkpt lat="47.16857" lon="-1.65716">
        <ele>68.5</ele>
        <time>2015-08-12T18:27:52Z</time>
      </trkpt>
      <trkpt lat="47.16852" lon="-1.65687">
        <ele>69.5</ele>
        <time>2015-08-12T18:27:59Z</time>
      </trkpt>
      <trkpt lat="47.16852" lon="-1.65659">
        <ele>70.5</ele>
        <time>2015-08-12T18:28:06Z</time>
      </trkpt>
      <trkpt lat="47.16858" lon="-1.65631">
        <ele>70.9</ele>
        <time>2015-08-12T18:28:11Z</time>
      </trkpt>
      <trkpt lat="47.16853" lon="-1.65602">
        <ele>71.9</ele>
        <time>2015-08-12T18:28:20Z</time>
      </trkpt>
      <trkpt lat="47.16849" lon="-1.65572">
        <ele>72.7</ele>
        <time>2015-08-12T18:28:28Z</time>
      </trkpt>
      <trkpt lat="47.16846" lon="-1.65541">
        <ele>73.1</ele>
        <time>2015-08-12T18:28:34Z</time>
      </trkpt>
      <trkpt lat="47.16842" lon="-1.65515">
        <ele>73.4</ele>
        <time>2015-08-12T18:28:40Z</time>
      </trkpt>
      <trkpt lat="47.16833" lon="-1.65492">
        <ele>74.6</ele>
        <time>2015-08-12T18:28:46Z</time>
      </trkpt>
      <trkpt lat="47.16817" lon="-1.65473">
        <ele>76.1</ele>
        <time>2015-08-12T18:28:53Z</time>
      </trkpt>
      <trkpt lat="47.16812" lon="-1.65447">
        <ele>76.7</ele>
        <time>2015-08-12T18:28:59Z</time>
      </trkpt>
      <trkpt lat="47.16811" lon="-1.65415">
        <ele>75.9</ele>
        <time>2015-08-12T18:29:04Z</time>
      </trkpt>
      <trkpt lat="47.16809" lon="-1.65389">
        <ele>75.7</ele>
        <time>2015-08-12T18:29:09Z</time>
      </trkpt>
      <trkpt lat="47.16814" lon="-1.65358">
        <ele>76</ele>
        <time>2015-08-12T18:29:14Z</time>
      </trkpt>
      <trkpt lat="47.16807" lon="-1.65331">
        <ele>76.4</ele>
        <time>2015-08-12T18:29:21Z</time>
      </trkpt>
      <trkpt lat="47.16801" lon="-1.65305">
        <ele>77.4</ele>
        <time>2015-08-12T18:29:29Z</time>
      </trkpt>
      <trkpt lat="47.16797" lon="-1.65278">
        <ele>77.9</ele>
        <time>2015-08-12T18:29:35Z</time>
      </trkpt>
      <trkpt lat="47.16797" lon="-1.65249">
        <ele>79.2</ele>
        <time>2015-08-12T18:29:42Z</time>
      </trkpt>
      <trkpt lat="47.16795" lon="-1.6522">
        <ele>80.3</ele>
        <time>2015-08-12T18:29:48Z</time>
      </trkpt>
      <trkpt lat="47.168" lon="-1.65193">
        <ele>80.6</ele>
        <time>2015-08-12T18:29:53Z</time>
      </trkpt>
      <trkpt lat="47.16801" lon="-1.65162">
        <ele>81.9</ele>
        <time>2015-08-12T18:30:02Z</time>
      </trkpt>
      <trkpt lat="47.168" lon="-1.65134">
        <ele>82.9</ele>
        <time>2015-08-12T18:30:08Z</time>
      </trkpt>
      <trkpt lat="47.16791" lon="-1.65106">
        <ele>82.8</ele>
        <time>2015-08-12T18:30:13Z</time>
      </trkpt>
      <trkpt lat="47.16795" lon="-1.65077">
        <ele>83.8</ele>
        <time>2015-08-12T18:30:20Z</time>
      </trkpt>
      <trkpt lat="47.16788" lon="-1.65051">
        <ele>83.9</ele>
        <time>2015-08-12T18:30:26Z</time>
      </trkpt>
      <trkpt lat="47.16784" lon="-1.65023">
        <ele>84.2</ele>
        <time>2015-08-12T18:30:33Z</time>
      </trkpt>
      <trkpt lat="47.16781" lon="-1.64995">
        <ele>84.1</ele>
        <time>2015-08-12T18:30:40Z</time>
      </trkpt>
      <trkpt lat="47.16786" lon="-1.64968">
        <ele>84.7</ele>
        <time>2015-08-12T18:30:46Z</time>
      </trkpt>
      <trkpt lat="47.16789" lon="-1.64942">
        <ele>85.7</ele>
        <time>2015-08-12T18:30:54Z</time>
      </trkpt>
      <trkpt lat="47.16789" lon="-1.64914">
        <ele>87.2</ele>
        <time>2015-08-12T18:31:03Z</time>
      </trkpt>
      <trkpt lat="47.16786" lon="-1.6488">
        <ele>88.1</ele>
        <time>2015-08-12T18:31:12Z</time>
      </trkpt>
      <trkpt lat="47.16786" lon="-1.64846">
        <ele>86.7</ele>
        <time>2015-08-12T18:31:17Z</time>
      </trkpt>
      <trkpt lat="47.16775" lon="-1.64824">
        <ele>86.6</ele>
        <time>2015-08-12T18:31:25Z</time>
      </trkpt>
      <trkpt lat="47.16766" lon="-1.64794">
        <ele>86.5</ele>
        <time>2015-08-12T18:31:33Z</time>
      </trkpt>
      <trkpt lat="47.16757" lon="-1.6477">
        <ele>86.2</ele>
        <time>2015-08-12T18:31:37Z</time>
      </trkpt>
      <trkpt lat="47.1675" lon="-1.64744">
        <ele>85.3</ele>
        <time>2015-08-12T18:31:42Z</time>
      </trkpt>
      <trkpt lat="47.16743" lon="-1.64716">
        <ele>84.8</ele>
        <time>2015-08-12T18:31:49Z</time>
      </trkpt>
      <trkpt lat="47.16737" lon="-1.64689">
        <ele>84.5</ele>
        <time>2015-08-12T18:31:56Z</time>
      </trkpt>
      <trkpt lat="47.1673" lon="-1.64663">
        <ele>84.1</ele>
        <time>2015-08-12T18:32:02Z</time>
      </trkpt>
      <trkpt lat="47.16725" lon="-1.6463">
        <ele>83.3</ele>
        <time>2015-08-12T18:32:09Z</time>
      </trkpt>
      <trkpt lat="47.16719" lon="-1.64499">
        <ele>84</ele>
        <time>2015-08-12T18:32:37Z</time>
      </trkpt>
      <trkpt lat="47.16714" lon="-1.64473">
        <ele>83.8</ele>
        <time>2015-08-12T18:32:41Z</time>
      </trkpt>
      <trkpt lat="47.16708" lon="-1.64444">
        <ele>83.6</ele>
        <time>2015-08-12T18:32:45Z</time>
      </trkpt>
      <trkpt lat="47.16704" lon="-1.64416">
        <ele>83.2</ele>
        <time>2015-08-12T18:32:50Z</time>
      </trkpt>
      <trkpt lat="47.16692" lon="-1.64395">
        <ele>83.6</ele>
        <time>2015-08-12T18:32:57Z</time>
      </trkpt>
      <trkpt lat="47.16618" lon="-1.6419">
        <ele>83.9</ele>
        <time>2015-08-12T18:33:55Z</time>
      </trkpt>
      <trkpt lat="47.16599" lon="-1.64195">
        <ele>83.6</ele>
        <time>2015-08-12T18:33:58Z</time>
      </trkpt>
      <trkpt lat="47.16579" lon="-1.64203">
        <ele>83.8</ele>
        <time>2015-08-12T18:34:02Z</time>
      </trkpt>
      <trkpt lat="47.16561" lon="-1.64219">
        <ele>84.2</ele>
        <time>2015-08-12T18:34:10Z</time>
      </trkpt>
      <trkpt lat="47.16547" lon="-1.64238">
        <ele>84.3</ele>
        <time>2015-08-12T18:34:16Z</time>
      </trkpt>
      <trkpt lat="47.16533" lon="-1.64257">
        <ele>84.7</ele>
        <time>2015-08-12T18:34:22Z</time>
      </trkpt>
      <trkpt lat="47.16517" lon="-1.64275">
        <ele>85.5</ele>
        <time>2015-08-12T18:34:29Z</time>
      </trkpt>
      <trkpt lat="47.16508" lon="-1.64297">
        <ele>87</ele>
        <time>2015-08-12T18:34:36Z</time>
      </trkpt>
      <trkpt lat="47.16493" lon="-1.64314">
        <ele>87.4</ele>
        <time>2015-08-12T18:34:43Z</time>
      </trkpt>
      <trkpt lat="47.16474" lon="-1.64309">
        <ele>86.2</ele>
        <time>2015-08-12T18:34:50Z</time>
      </trkpt>
      <trkpt lat="47.16457" lon="-1.64322">
        <ele>86.6</ele>
        <time>2015-08-12T18:34:58Z</time>
      </trkpt>
      <trkpt lat="47.16441" lon="-1.64335">
        <ele>87.9</ele>
        <time>2015-08-12T18:35:06Z</time>
      </trkpt>
      <trkpt lat="47.16427" lon="-1.64351">
        <ele>88.4</ele>
        <time>2015-08-12T18:35:12Z</time>
      </trkpt>
      <trkpt lat="47.16411" lon="-1.64367">
        <ele>90.2</ele>
        <time>2015-08-12T18:35:19Z</time>
      </trkpt>
      <trkpt lat="47.16398" lon="-1.64386">
        <ele>91.4</ele>
        <time>2015-08-12T18:35:25Z</time>
      </trkpt>
      <trkpt lat="47.16386" lon="-1.6441">
        <ele>91.6</ele>
        <time>2015-08-12T18:35:31Z</time>
      </trkpt>
      <trkpt lat="47.16375" lon="-1.64436">
        <ele>93.1</ele>
        <time>2015-08-12T18:35:38Z</time>
      </trkpt>
      <trkpt lat="47.16365" lon="-1.64458">
        <ele>93.5</ele>
        <time>2015-08-12T18:35:43Z</time>
      </trkpt>
      <trkpt lat="47.16351" lon="-1.64484">
        <ele>94.2</ele>
        <time>2015-08-12T18:35:49Z</time>
      </trkpt>
      <trkpt lat="47.16338" lon="-1.64509">
        <ele>93.8</ele>
        <time>2015-08-12T18:35:54Z</time>
      </trkpt>
      <trkpt lat="47.16324" lon="-1.64532">
        <ele>93.7</ele>
        <time>2015-08-12T18:36:00Z</time>
      </trkpt>
      <trkpt lat="47.16313" lon="-1.64559">
        <ele>92.5</ele>
        <time>2015-08-12T18:36:07Z</time>
      </trkpt>
      <trkpt lat="47.16302" lon="-1.64583">
        <ele>91.1</ele>
        <time>2015-08-12T18:36:14Z</time>
      </trkpt>
      <trkpt lat="47.16293" lon="-1.64606">
        <ele>90.9</ele>
        <time>2015-08-12T18:36:20Z</time>
      </trkpt>
      <trkpt lat="47.16281" lon="-1.6463">
        <ele>93.2</ele>
        <time>2015-08-12T18:36:28Z</time>
      </trkpt>
      <trkpt lat="47.16267" lon="-1.6465">
        <ele>94.2</ele>
        <time>2015-08-12T18:36:35Z</time>
      </trkpt>
      <trkpt lat="47.16251" lon="-1.64665">
        <ele>94.9</ele>
        <time>2015-08-12T18:36:41Z</time>
      </trkpt>
      <trkpt lat="47.16237" lon="-1.64688">
        <ele>96.1</ele>
        <time>2015-08-12T18:36:47Z</time>
      </trkpt>
      <trkpt lat="47.16226" lon="-1.64709">
        <ele>97.3</ele>
        <time>2015-08-12T18:36:52Z</time>
      </trkpt>
      <trkpt lat="47.16215" lon="-1.64731">
        <ele>99</ele>
        <time>2015-08-12T18:36:59Z</time>
      </trkpt>
      <trkpt lat="47.16204" lon="-1.64755">
        <ele>99.4</ele>
        <time>2015-08-12T18:37:05Z</time>
      </trkpt>
      <trkpt lat="47.16195" lon="-1.64779">
        <ele>99.1</ele>
        <time>2015-08-12T18:37:11Z</time>
      </trkpt>
      <trkpt lat="47.16186" lon="-1.64806">
        <ele>99.3</ele>
        <time>2015-08-12T18:37:18Z</time>
      </trkpt>
      <trkpt lat="47.16175" lon="-1.6483">
        <ele>99.9</ele>
        <time>2015-08-12T18:37:25Z</time>
      </trkpt>
      <trkpt lat="47.16164" lon="-1.64853">
        <ele>100.8</ele>
        <time>2015-08-12T18:37:32Z</time>
      </trkpt>
      <trkpt lat="47.16151" lon="-1.64872">
        <ele>100.9</ele>
        <time>2015-08-12T18:37:40Z</time>
      </trkpt>
      <trkpt lat="47.16142" lon="-1.64897">
        <ele>100.5</ele>
        <time>2015-08-12T18:37:48Z</time>
      </trkpt>
      <trkpt lat="47.16131" lon="-1.64919">
        <ele>99.7</ele>
        <time>2015-08-12T18:37:55Z</time>
      </trkpt>
      <trkpt lat="47.16119" lon="-1.6494">
        <ele>98.7</ele>
        <time>2015-08-12T18:38:02Z</time>
      </trkpt>
      <trkpt lat="47.16109" lon="-1.64963">
        <ele>98.6</ele>
        <time>2015-08-12T18:38:10Z</time>
      </trkpt>
      <trkpt lat="47.16097" lon="-1.64984">
        <ele>98.2</ele>
        <time>2015-08-12T18:38:16Z</time>
      </trkpt>
      <trkpt lat="47.16087" lon="-1.65007">
        <ele>98.2</ele>
        <time>2015-08-12T18:38:23Z</time>
      </trkpt>
      <trkpt lat="47.16075" lon="-1.6503">
        <ele>98.4</ele>
        <time>2015-08-12T18:38:29Z</time>
      </trkpt>
      <trkpt lat="47.1606" lon="-1.65049">
        <ele>99.8</ele>
        <time>2015-08-12T18:38:36Z</time>
      </trkpt>
      <trkpt lat="47.16046" lon="-1.65068">
        <ele>101.6</ele>
        <time>2015-08-12T18:38:44Z</time>
      </trkpt>
      <trkpt lat="47.16031" lon="-1.65093">
        <ele>103.4</ele>
        <time>2015-08-12T18:38:52Z</time>
      </trkpt>
      <trkpt lat="47.16019" lon="-1.65115">
        <ele>103.5</ele>
        <time>2015-08-12T18:38:56Z</time>
      </trkpt>
      <trkpt lat="47.16006" lon="-1.65136">
        <ele>104.1</ele>
        <time>2015-08-12T18:39:01Z</time>
      </trkpt>
      <trkpt lat="47.15995" lon="-1.65158">
        <ele>104.7</ele>
        <time>2015-08-12T18:39:07Z</time>
      </trkpt>
      <trkpt lat="47.15989" lon="-1.65183">
        <ele>104.9</ele>
        <time>2015-08-12T18:39:14Z</time>
      </trkpt>
      <trkpt lat="47.15977" lon="-1.65208">
        <ele>105.6</ele>
        <time>2015-08-12T18:39:22Z</time>
      </trkpt>
      <trkpt lat="47.15965" lon="-1.65231">
        <ele>105.2</ele>
        <time>2015-08-12T18:39:28Z</time>
      </trkpt>
      <trkpt lat="47.15955" lon="-1.65253">
        <ele>105</ele>
        <time>2015-08-12T18:39:35Z</time>
      </trkpt>
      <trkpt lat="47.15943" lon="-1.65278">
        <ele>105.6</ele>
        <time>2015-08-12T18:39:42Z</time>
      </trkpt>
      <trkpt lat="47.15933" lon="-1.653">
        <ele>106.3</ele>
        <time>2015-08-12T18:39:48Z</time>
      </trkpt>
      <trkpt lat="47.15923" lon="-1.65326">
        <ele>106.5</ele>
        <time>2015-08-12T18:39:56Z</time>
      </trkpt>
      <trkpt lat="47.15913" lon="-1.65349">
        <ele>106.4</ele>
        <time>2015-08-12T18:40:02Z</time>
      </trkpt>
      <trkpt lat="47.15903" lon="-1.65373">
        <ele>107.1</ele>
        <time>2015-08-12T18:40:07Z</time>
      </trkpt>
      <trkpt lat="47.15891" lon="-1.65395">
        <ele>108.3</ele>
        <time>2015-08-12T18:40:12Z</time>
      </trkpt>
      <trkpt lat="47.15882" lon="-1.65419">
        <ele>109.7</ele>
        <time>2015-08-12T18:40:18Z</time>
      </trkpt>
      <trkpt lat="47.15872" lon="-1.65444">
        <ele>110.8</ele>
        <time>2015-08-12T18:40:23Z</time>
      </trkpt>
      <trkpt lat="47.1586" lon="-1.65469">
        <ele>112.2</ele>
        <time>2015-08-12T18:40:29Z</time>
      </trkpt>
      <trkpt lat="47.15852" lon="-1.65494">
        <ele>113.5</ele>
        <time>2015-08-12T18:40:35Z</time>
      </trkpt>
      <trkpt lat="47.15841" lon="-1.65517">
        <ele>113.9</ele>
        <time>2015-08-12T18:40:40Z</time>
      </trkpt>
      <trkpt lat="47.15833" lon="-1.65542">
        <ele>114.2</ele>
        <time>2015-08-12T18:40:47Z</time>
      </trkpt>
      <trkpt lat="47.15821" lon="-1.65564">
        <ele>115.6</ele>
        <time>2015-08-12T18:40:54Z</time>
      </trkpt>
      <trkpt lat="47.15804" lon="-1.65587">
        <ele>116.4</ele>
        <time>2015-08-12T18:41:01Z</time>
      </trkpt>
      <trkpt lat="47.15791" lon="-1.65609">
        <ele>116.5</ele>
        <time>2015-08-12T18:41:07Z</time>
      </trkpt>
      <trkpt lat="47.15779" lon="-1.65632">
        <ele>117.5</ele>
        <time>2015-08-12T18:41:13Z</time>
      </trkpt>
      <trkpt lat="47.15766" lon="-1.65655">
        <ele>118</ele>
        <time>2015-08-12T18:41:20Z</time>
      </trkpt>
      <trkpt lat="47.15755" lon="-1.65678">
        <ele>118.9</ele>
        <time>2015-08-12T18:41:26Z</time>
      </trkpt>
      <trkpt lat="47.15744" lon="-1.65701">
        <ele>119.2</ele>
        <time>2015-08-12T18:41:32Z</time>
      </trkpt>
      <trkpt lat="47.15732" lon="-1.65724">
        <ele>118.6</ele>
        <time>2015-08-12T18:41:41Z</time>
      </trkpt>
      <trkpt lat="47.15717" lon="-1.65743">
        <ele>118.7</ele>
        <time>2015-08-12T18:41:47Z</time>
      </trkpt>
      <trkpt lat="47.15701" lon="-1.65758">
        <ele>118.9</ele>
        <time>2015-08-12T18:41:53Z</time>
      </trkpt>
      <trkpt lat="47.15685" lon="-1.65772">
        <ele>119.6</ele>
        <time>2015-08-12T18:42:00Z</time>
      </trkpt>
      <trkpt lat="47.15668" lon="-1.65782">
        <ele>69.8</ele>
        <time>2015-08-12T18:42:17Z</time>
      </trkpt>
      <trkpt lat="47.15653" lon="-1.65803">
        <ele>52.5</ele>
        <time>2015-08-12T18:42:24Z</time>
      </trkpt>
      <trkpt lat="47.1564" lon="-1.65826">
        <ele>48.9</ele>
        <time>2015-08-12T18:42:32Z</time>
      </trkpt>
      <trkpt lat="47.15626" lon="-1.65846">
        <ele>48.5</ele>
        <time>2015-08-12T18:42:40Z</time>
      </trkpt>
      <trkpt lat="47.15612" lon="-1.65867">
        <ele>50.7</ele>
        <time>2015-08-12T18:42:47Z</time>
      </trkpt>
      <trkpt lat="47.15595" lon="-1.65884">
        <ele>51.4</ele>
        <time>2015-08-12T18:42:54Z</time>
      </trkpt>
      <trkpt lat="47.15582" lon="-1.65904">
        <ele>52.4</ele>
        <time>2015-08-12T18:43:01Z</time>
      </trkpt>
      <trkpt lat="47.15564" lon="-1.65924">
        <ele>48.6</ele>
        <time>2015-08-12T18:43:09Z</time>
      </trkpt>
      <trkpt lat="47.15549" lon="-1.65939">
        <ele>46.6</ele>
        <time>2015-08-12T18:43:17Z</time>
      </trkpt>
      <trkpt lat="47.15534" lon="-1.65958">
        <ele>47.2</ele>
        <time>2015-08-12T18:43:26Z</time>
      </trkpt>
      <trkpt lat="47.15518" lon="-1.65977">
        <ele>46.6</ele>
        <time>2015-08-12T18:43:33Z</time>
      </trkpt>
      <trkpt lat="47.15498" lon="-1.65989">
        <ele>40.1</ele>
        <time>2015-08-12T18:43:38Z</time>
      </trkpt>
      <trkpt lat="47.1548" lon="-1.65998">
        <ele>39.1</ele>
        <time>2015-08-12T18:43:44Z</time>
      </trkpt>
      <trkpt lat="47.15461" lon="-1.66003">
        <ele>37.2</ele>
        <time>2015-08-12T18:43:50Z</time>
      </trkpt>
      <trkpt lat="47.15442" lon="-1.66009">
        <ele>37.1</ele>
        <time>2015-08-12T18:43:56Z</time>
      </trkpt>
      <trkpt lat="47.15422" lon="-1.66009">
        <ele>37.5</ele>
        <time>2015-08-12T18:44:02Z</time>
      </trkpt>
      <trkpt lat="47.15404" lon="-1.66014">
        <ele>36.9</ele>
        <time>2015-08-12T18:44:08Z</time>
      </trkpt>
      <trkpt lat="47.15388" lon="-1.66027">
        <ele>37.4</ele>
        <time>2015-08-12T18:44:15Z</time>
      </trkpt>
      <trkpt lat="47.1537" lon="-1.66027">
        <ele>37.7</ele>
        <time>2015-08-12T18:44:22Z</time>
      </trkpt>
      <trkpt lat="47.15349" lon="-1.66025">
        <ele>38</ele>
        <time>2015-08-12T18:44:28Z</time>
      </trkpt>
      <trkpt lat="47.15331" lon="-1.66025">
        <ele>38.2</ele>
        <time>2015-08-12T18:44:35Z</time>
      </trkpt>
      <trkpt lat="47.15311" lon="-1.66029">
        <ele>37.8</ele>
        <time>2015-08-12T18:44:41Z</time>
      </trkpt>
      <trkpt lat="47.1529" lon="-1.6603">
        <ele>36.4</ele>
        <time>2015-08-12T18:44:47Z</time>
      </trkpt>
      <trkpt lat="47.15273" lon="-1.6602">
        <ele>36.4</ele>
        <time>2015-08-12T18:44:54Z</time>
      </trkpt>
      <trkpt lat="47.1527" lon="-1.65992">
        <ele>36.1</ele>
        <time>2015-08-12T18:44:59Z</time>
      </trkpt>
      <trkpt lat="47.15265" lon="-1.65962">
        <ele>36.2</ele>
        <time>2015-08-12T18:45:05Z</time>
      </trkpt>
      <trkpt lat="47.15257" lon="-1.65937">
        <ele>36.3</ele>
        <time>2015-08-12T18:45:11Z</time>
      </trkpt>
      <trkpt lat="47.15244" lon="-1.65916">
        <ele>35.9</ele>
        <time>2015-08-12T18:45:18Z</time>
      </trkpt>
      <trkpt lat="47.15238" lon="-1.65887">
        <ele>36.7</ele>
        <time>2015-08-12T18:45:27Z</time>
      </trkpt>
      <trkpt lat="47.15232" lon="-1.65859">
        <ele>36.9</ele>
        <time>2015-08-12T18:45:34Z</time>
      </trkpt>
      <trkpt lat="47.15228" lon="-1.6583">
        <ele>37.3</ele>
        <time>2015-08-12T18:45:40Z</time>
      </trkpt>
      <trkpt lat="47.15222" lon="-1.65803">
        <ele>37.7</ele>
        <time>2015-08-12T18:45:47Z</time>
      </trkpt>
      <trkpt lat="47.15219" lon="-1.65773">
        <ele>37.9</ele>
        <time>2015-08-12T18:45:53Z</time>
      </trkpt>
      <trkpt lat="47.15212" lon="-1.65744">
        <ele>38</ele>
        <time>2015-08-12T18:45:59Z</time>
      </trkpt>
      <trkpt lat="47.15207" lon="-1.65716">
        <ele>38</ele>
        <time>2015-08-12T18:46:05Z</time>
      </trkpt>
      <trkpt lat="47.15202" lon="-1.65689">
        <ele>38.3</ele>
        <time>2015-08-12T18:46:11Z</time>
      </trkpt>
      <trkpt lat="47.15199" lon="-1.65662">
        <ele>38.9</ele>
        <time>2015-08-12T18:46:18Z</time>
      </trkpt>
      <trkpt lat="47.15192" lon="-1.65637">
        <ele>39.2</ele>
        <time>2015-08-12T18:46:24Z</time>
      </trkpt>
      <trkpt lat="47.15187" lon="-1.65608">
        <ele>39.8</ele>
        <time>2015-08-12T18:46:31Z</time>
      </trkpt>
      <trkpt lat="47.15174" lon="-1.65586">
        <ele>39.6</ele>
        <time>2015-08-12T18:46:38Z</time>
      </trkpt>
      <trkpt lat="47.15165" lon="-1.65563">
        <ele>40.2</ele>
        <time>2015-08-12T18:46:44Z</time>
      </trkpt>
      <trkpt lat="47.15158" lon="-1.65538">
        <ele>40.8</ele>
        <time>2015-08-12T18:46:50Z</time>
      </trkpt>
      <trkpt lat="47.15149" lon="-1.65511">
        <ele>41.4</ele>
        <time>2015-08-12T18:46:58Z</time>
      </trkpt>
      <trkpt lat="47.15139" lon="-1.65484">
        <ele>41.7</ele>
        <time>2015-08-12T18:47:06Z</time>
      </trkpt>
      <trkpt lat="47.15138" lon="-1.65455">
        <ele>42.3</ele>
        <time>2015-08-12T18:47:13Z</time>
      </trkpt>
      <trkpt lat="47.15134" lon="-1.65427">
        <ele>42.9</ele>
        <time>2015-08-12T18:47:20Z</time>
      </trkpt>
      <trkpt lat="47.15126" lon="-1.65403">
        <ele>43.4</ele>
        <time>2015-08-12T18:47:27Z</time>
      </trkpt>
      <trkpt lat="47.15116" lon="-1.65375">
        <ele>43.6</ele>
        <time>2015-08-12T18:47:32Z</time>
      </trkpt>
      <trkpt lat="47.15106" lon="-1.6535">
        <ele>44.2</ele>
        <time>2015-08-12T18:47:38Z</time>
      </trkpt>
      <trkpt lat="47.15097" lon="-1.65326">
        <ele>44.9</ele>
        <time>2015-08-12T18:47:44Z</time>
      </trkpt>
      <trkpt lat="47.15088" lon="-1.65299">
        <ele>45.6</ele>
        <time>2015-08-12T18:47:51Z</time>
      </trkpt>
      <trkpt lat="47.15079" lon="-1.65274">
        <ele>45.8</ele>
        <time>2015-08-12T18:47:58Z</time>
      </trkpt>
      <trkpt lat="47.15063" lon="-1.65258">
        <ele>45.9</ele>
        <time>2015-08-12T18:48:05Z</time>
      </trkpt>
      <trkpt lat="47.15049" lon="-1.6524">
        <ele>46.4</ele>
        <time>2015-08-12T18:48:12Z</time>
      </trkpt>
      <trkpt lat="47.15034" lon="-1.65223">
        <ele>47</ele>
        <time>2015-08-12T18:48:19Z</time>
      </trkpt>
      <trkpt lat="47.15016" lon="-1.65211">
        <ele>47.6</ele>
        <time>2015-08-12T18:48:26Z</time>
      </trkpt>
      <trkpt lat="47.14999" lon="-1.65195">
        <ele>48.5</ele>
        <time>2015-08-12T18:48:32Z</time>
      </trkpt>
      <trkpt lat="47.14984" lon="-1.65178">
        <ele>49.6</ele>
        <time>2015-08-12T18:48:38Z</time>
      </trkpt>
      <trkpt lat="47.14968" lon="-1.65164">
        <ele>50.5</ele>
        <time>2015-08-12T18:48:44Z</time>
      </trkpt>
      <trkpt lat="47.1495" lon="-1.65149">
        <ele>51.7</ele>
        <time>2015-08-12T18:48:51Z</time>
      </trkpt>
      <trkpt lat="47.14935" lon="-1.65132">
        <ele>52.2</ele>
        <time>2015-08-12T18:48:57Z</time>
      </trkpt>
      <trkpt lat="47.14919" lon="-1.65117">
        <ele>52.9</ele>
        <time>2015-08-12T18:49:03Z</time>
      </trkpt>
      <trkpt lat="47.14902" lon="-1.65104">
        <ele>53.8</ele>
        <time>2015-08-12T18:49:09Z</time>
      </trkpt>
      <trkpt lat="47.14885" lon="-1.65088">
        <ele>54.9</ele>
        <time>2015-08-12T18:49:16Z</time>
      </trkpt>
      <trkpt lat="47.14867" lon="-1.65075">
        <ele>55.2</ele>
        <time>2015-08-12T18:49:22Z</time>
      </trkpt>
      <trkpt lat="47.14852" lon="-1.6506">
        <ele>54.7</ele>
        <time>2015-08-12T18:49:28Z</time>
      </trkpt>
      <trkpt lat="47.14838" lon="-1.65039">
        <ele>54.6</ele>
        <time>2015-08-12T18:49:35Z</time>
      </trkpt>
      <trkpt lat="47.14823" lon="-1.65021">
        <ele>54.5</ele>
        <time>2015-08-12T18:49:41Z</time>
      </trkpt>
      <trkpt lat="47.14807" lon="-1.65006">
        <ele>54.7</ele>
        <time>2015-08-12T18:49:47Z</time>
      </trkpt>
      <trkpt lat="47.14789" lon="-1.64994">
        <ele>55.2</ele>
        <time>2015-08-12T18:49:55Z</time>
      </trkpt>
      <trkpt lat="47.14772" lon="-1.64978">
        <ele>54.8</ele>
        <time>2015-08-12T18:50:02Z</time>
      </trkpt>
      <trkpt lat="47.14756" lon="-1.64964">
        <ele>54.7</ele>
        <time>2015-08-12T18:50:08Z</time>
      </trkpt>
      <trkpt lat="47.1474" lon="-1.6495">
        <ele>54.8</ele>
        <time>2015-08-12T18:50:14Z</time>
      </trkpt>
      <trkpt lat="47.14722" lon="-1.64938">
        <ele>53.8</ele>
        <time>2015-08-12T18:50:20Z</time>
      </trkpt>
      <trkpt lat="47.14705" lon="-1.64925">
        <ele>51.4</ele>
        <time>2015-08-12T18:50:26Z</time>
      </trkpt>
      <trkpt lat="47.14696" lon="-1.64902">
        <ele>51</ele>
        <time>2015-08-12T18:50:32Z</time>
      </trkpt>
      <trkpt lat="47.14694" lon="-1.64874">
        <ele>50.6</ele>
        <time>2015-08-12T18:50:43Z</time>
      </trkpt>
      <trkpt lat="47.147" lon="-1.64845">
        <ele>50.6</ele>
        <time>2015-08-12T18:50:51Z</time>
      </trkpt>
      <trkpt lat="47.14709" lon="-1.6482">
        <ele>50.6</ele>
        <time>2015-08-12T18:50:58Z</time>
      </trkpt>
      <trkpt lat="47.14718" lon="-1.64797">
        <ele>50.8</ele>
        <time>2015-08-12T18:51:04Z</time>
      </trkpt>
      <trkpt lat="47.14724" lon="-1.64772">
        <ele>51</ele>
        <time>2015-08-12T18:51:10Z</time>
      </trkpt>
      <trkpt lat="47.14731" lon="-1.64746">
        <ele>51.3</ele>
        <time>2015-08-12T18:51:16Z</time>
      </trkpt>
      <trkpt lat="47.14738" lon="-1.64717">
        <ele>51.5</ele>
        <time>2015-08-12T18:51:23Z</time>
      </trkpt>
      <trkpt lat="47.14744" lon="-1.6469">
        <ele>49.3</ele>
        <time>2015-08-12T18:51:27Z</time>
      </trkpt>
      <trkpt lat="47.14747" lon="-1.64662">
        <ele>49.4</ele>
        <time>2015-08-12T18:51:33Z</time>
      </trkpt>
      <trkpt lat="47.14748" lon="-1.64631">
        <ele>49.4</ele>
        <time>2015-08-12T18:51:40Z</time>
      </trkpt>
      <trkpt lat="47.14751" lon="-1.64603">
        <ele>47.9</ele>
        <time>2015-08-12T18:51:47Z</time>
      </trkpt>
      <trkpt lat="47.14756" lon="-1.64576">
        <ele>46.4</ele>
        <time>2015-08-12T18:51:54Z</time>
      </trkpt>
      <trkpt lat="47.14762" lon="-1.64547">
        <ele>46.2</ele>
        <time>2015-08-12T18:52:01Z</time>
      </trkpt>
      <trkpt lat="47.14767" lon="-1.64518">
        <ele>44.7</ele>
        <time>2015-08-12T18:52:08Z</time>
      </trkpt>
      <trkpt lat="47.14773" lon="-1.64489">
        <ele>43.1</ele>
        <time>2015-08-12T18:52:15Z</time>
      </trkpt>
      <trkpt lat="47.14778" lon="-1.64461">
        <ele>42.8</ele>
        <time>2015-08-12T18:52:22Z</time>
      </trkpt>
      <trkpt lat="47.14784" lon="-1.64434">
        <ele>41.9</ele>
        <time>2015-08-12T18:52:29Z</time>
      </trkpt>
      <trkpt lat="47.1479" lon="-1.64407">
        <ele>40.8</ele>
        <time>2015-08-12T18:52:36Z</time>
      </trkpt>
      <trkpt lat="47.14802" lon="-1.64384">
        <ele>38.8</ele>
        <time>2015-08-12T18:52:44Z</time>
      </trkpt>
      <trkpt lat="47.14806" lon="-1.64357">
        <ele>37.6</ele>
        <time>2015-08-12T18:52:51Z</time>
      </trkpt>
      <trkpt lat="47.14814" lon="-1.64331">
        <ele>37.9</ele>
        <time>2015-08-12T18:52:58Z</time>
      </trkpt>
      <trkpt lat="47.14822" lon="-1.64307">
        <ele>37.6</ele>
        <time>2015-08-12T18:53:04Z</time>
      </trkpt>
      <trkpt lat="47.14822" lon="-1.64276">
        <ele>36.9</ele>
        <time>2015-08-12T18:53:10Z</time>
      </trkpt>
      <trkpt lat="47.14829" lon="-1.6425">
        <ele>36.5</ele>
        <time>2015-08-12T18:53:16Z</time>
      </trkpt>
      <trkpt lat="47.14838" lon="-1.64224">
        <ele>36.4</ele>
        <time>2015-08-12T18:53:24Z</time>
      </trkpt>
      <trkpt lat="47.14845" lon="-1.64193">
        <ele>36.2</ele>
        <time>2015-08-12T18:53:32Z</time>
      </trkpt>
      <trkpt lat="47.14855" lon="-1.64171">
        <ele>35.9</ele>
        <time>2015-08-12T18:53:39Z</time>
      </trkpt>
      <trkpt lat="47.14867" lon="-1.64147">
        <ele>35.6</ele>
        <time>2015-08-12T18:53:47Z</time>
      </trkpt>
      <trkpt lat="47.14877" lon="-1.6412">
        <ele>35.7</ele>
        <time>2015-08-12T18:53:54Z</time>
      </trkpt>
      <trkpt lat="47.14887" lon="-1.64098">
        <ele>35.9</ele>
        <time>2015-08-12T18:54:00Z</time>
      </trkpt>
      <trkpt lat="47.14895" lon="-1.64072">
        <ele>36.1</ele>
        <time>2015-08-12T18:54:07Z</time>
      </trkpt>
      <trkpt lat="47.14906" lon="-1.64046">
        <ele>36.3</ele>
        <time>2015-08-12T18:54:14Z</time>
      </trkpt>
      <trkpt lat="47.14914" lon="-1.64018">
        <ele>36.5</ele>
        <time>2015-08-12T18:54:21Z</time>
      </trkpt>
      <trkpt lat="47.14927" lon="-1.63997">
        <ele>36.4</ele>
        <time>2015-08-12T18:54:27Z</time>
      </trkpt>
      <trkpt lat="47.14939" lon="-1.63973">
        <ele>36.6</ele>
        <time>2015-08-12T18:54:33Z</time>
      </trkpt>
      <trkpt lat="47.14948" lon="-1.6395">
        <ele>36.7</ele>
        <time>2015-08-12T18:54:39Z</time>
      </trkpt>
      <trkpt lat="47.14963" lon="-1.6393">
        <ele>36.3</ele>
        <time>2015-08-12T18:54:47Z</time>
      </trkpt>
      <trkpt lat="47.14977" lon="-1.63912">
        <ele>36.4</ele>
        <time>2015-08-12T18:54:55Z</time>
      </trkpt>
      <trkpt lat="47.1499" lon="-1.63893">
        <ele>36.8</ele>
        <time>2015-08-12T18:55:03Z</time>
      </trkpt>
      <trkpt lat="47.15004" lon="-1.63874">
        <ele>36.8</ele>
        <time>2015-08-12T18:55:08Z</time>
      </trkpt>
      <trkpt lat="47.15019" lon="-1.63854">
        <ele>36.6</ele>
        <time>2015-08-12T18:55:14Z</time>
      </trkpt>
      <trkpt lat="47.15033" lon="-1.63831">
        <ele>36.6</ele>
        <time>2015-08-12T18:55:20Z</time>
      </trkpt>
      <trkpt lat="47.15046" lon="-1.63812">
        <ele>36.9</ele>
        <time>2015-08-12T18:55:26Z</time>
      </trkpt>
      <trkpt lat="47.15061" lon="-1.63794">
        <ele>37.1</ele>
        <time>2015-08-12T18:55:33Z</time>
      </trkpt>
      <trkpt lat="47.15077" lon="-1.63777">
        <ele>37.1</ele>
        <time>2015-08-12T18:55:40Z</time>
      </trkpt>
      <trkpt lat="47.1509" lon="-1.63756">
        <ele>37.1</ele>
        <time>2015-08-12T18:55:46Z</time>
      </trkpt>
      <trkpt lat="47.15105" lon="-1.63741">
        <ele>37.4</ele>
        <time>2015-08-12T18:55:52Z</time>
      </trkpt>
      <trkpt lat="47.1512" lon="-1.63723">
        <ele>37.8</ele>
        <time>2015-08-12T18:55:59Z</time>
      </trkpt>
      <trkpt lat="47.15137" lon="-1.63709">
        <ele>37.7</ele>
        <time>2015-08-12T18:56:05Z</time>
      </trkpt>
      <trkpt lat="47.15154" lon="-1.63693">
        <ele>38</ele>
        <time>2015-08-12T18:56:12Z</time>
      </trkpt>
      <trkpt lat="47.1517" lon="-1.63681">
        <ele>38.1</ele>
        <time>2015-08-12T18:56:18Z</time>
      </trkpt>
      <trkpt lat="47.15186" lon="-1.63667">
        <ele>38.1</ele>
        <time>2015-08-12T18:56:25Z</time>
      </trkpt>
      <trkpt lat="47.15203" lon="-1.63653">
        <ele>38.5</ele>
        <time>2015-08-12T18:56:32Z</time>
      </trkpt>
      <trkpt lat="47.1522" lon="-1.6364">
        <ele>38.7</ele>
        <time>2015-08-12T18:56:38Z</time>
      </trkpt>
      <trkpt lat="47.15237" lon="-1.63623">
        <ele>38.4</ele>
        <time>2015-08-12T18:56:45Z</time>
      </trkpt>
      <trkpt lat="47.15253" lon="-1.63607">
        <ele>38.1</ele>
        <time>2015-08-12T18:56:53Z</time>
      </trkpt>
      <trkpt lat="47.15272" lon="-1.63595">
        <ele>38.5</ele>
        <time>2015-08-12T18:57:01Z</time>
      </trkpt>
      <trkpt lat="47.15289" lon="-1.63579">
        <ele>39</ele>
        <time>2015-08-12T18:57:08Z</time>
      </trkpt>
      <trkpt lat="47.15304" lon="-1.63564">
        <ele>39.5</ele>
        <time>2015-08-12T18:57:14Z</time>
      </trkpt>
      <trkpt lat="47.15322" lon="-1.63553">
        <ele>39.7</ele>
        <time>2015-08-12T18:57:21Z</time>
      </trkpt>
      <trkpt lat="47.15339" lon="-1.63534">
        <ele>39.7</ele>
        <time>2015-08-12T18:57:28Z</time>
      </trkpt>
      <trkpt lat="47.15356" lon="-1.63516">
        <ele>39.6</ele>
        <time>2015-08-12T18:57:35Z</time>
      </trkpt>
      <trkpt lat="47.15375" lon="-1.63504">
        <ele>39.5</ele>
        <time>2015-08-12T18:57:42Z</time>
      </trkpt>
      <trkpt lat="47.15391" lon="-1.6349">
        <ele>39.3</ele>
        <time>2015-08-12T18:57:48Z</time>
      </trkpt>
      <trkpt lat="47.15406" lon="-1.63473">
        <ele>39.5</ele>
        <time>2015-08-12T18:57:55Z</time>
      </trkpt>
      <trkpt lat="47.15419" lon="-1.63454">
        <ele>39.6</ele>
        <time>2015-08-12T18:58:01Z</time>
      </trkpt>
      <trkpt lat="47.15436" lon="-1.63442">
        <ele>39.6</ele>
        <time>2015-08-12T18:58:07Z</time>
      </trkpt>
      <trkpt lat="47.15453" lon="-1.63426">
        <ele>39.5</ele>
        <time>2015-08-12T18:58:13Z</time>
      </trkpt>
      <trkpt lat="47.15469" lon="-1.63414">
        <ele>39.2</ele>
        <time>2015-08-12T18:58:19Z</time>
      </trkpt>
      <trkpt lat="47.15487" lon="-1.63401">
        <ele>38.9</ele>
        <time>2015-08-12T18:58:25Z</time>
      </trkpt>
      <trkpt lat="47.15504" lon="-1.63389">
        <ele>38.8</ele>
        <time>2015-08-12T18:58:31Z</time>
      </trkpt>
      <trkpt lat="47.15518" lon="-1.63373">
        <ele>38.9</ele>
        <time>2015-08-12T18:58:37Z</time>
      </trkpt>
      <trkpt lat="47.15533" lon="-1.63356">
        <ele>38.6</ele>
        <time>2015-08-12T18:58:44Z</time>
      </trkpt>
      <trkpt lat="47.15548" lon="-1.63341">
        <ele>37.9</ele>
        <time>2015-08-12T18:58:50Z</time>
      </trkpt>
      <trkpt lat="47.15564" lon="-1.63328">
        <ele>36.9</ele>
        <time>2015-08-12T18:58:56Z</time>
      </trkpt>
      <trkpt lat="47.15582" lon="-1.63313">
        <ele>36.4</ele>
        <time>2015-08-12T18:59:02Z</time>
      </trkpt>
      <trkpt lat="47.15598" lon="-1.63298">
        <ele>36</ele>
        <time>2015-08-12T18:59:08Z</time>
      </trkpt>
      <trkpt lat="47.15614" lon="-1.6328">
        <ele>35.8</ele>
        <time>2015-08-12T18:59:15Z</time>
      </trkpt>
      <trkpt lat="47.1563" lon="-1.63266">
        <ele>34.7</ele>
        <time>2015-08-12T18:59:21Z</time>
      </trkpt>
      <trkpt lat="47.15648" lon="-1.6325">
        <ele>33.9</ele>
        <time>2015-08-12T18:59:28Z</time>
      </trkpt>
      <trkpt lat="47.15666" lon="-1.63238">
        <ele>32.8</ele>
        <time>2015-08-12T18:59:35Z</time>
      </trkpt>
      <trkpt lat="47.15683" lon="-1.63219">
        <ele>31</ele>
        <time>2015-08-12T18:59:42Z</time>
      </trkpt>
      <trkpt lat="47.15696" lon="-1.63199">
        <ele>30.3</ele>
        <time>2015-08-12T18:59:48Z</time>
      </trkpt>
      <trkpt lat="47.15712" lon="-1.63184">
        <ele>29.5</ele>
        <time>2015-08-12T18:59:54Z</time>
      </trkpt>
      <trkpt lat="47.15728" lon="-1.63167">
        <ele>28.4</ele>
        <time>2015-08-12T19:00:01Z</time>
      </trkpt>
      <trkpt lat="47.15743" lon="-1.63147">
        <ele>27.4</ele>
        <time>2015-08-12T19:00:08Z</time>
      </trkpt>
      <trkpt lat="47.15761" lon="-1.63137">
        <ele>26.8</ele>
        <time>2015-08-12T19:00:14Z</time>
      </trkpt>
      <trkpt lat="47.15777" lon="-1.63122">
        <ele>26.1</ele>
        <time>2015-08-12T19:00:20Z</time>
      </trkpt>
      <trkpt lat="47.15793" lon="-1.63106">
        <ele>25.3</ele>
        <time>2015-08-12T19:00:27Z</time>
      </trkpt>
      <trkpt lat="47.15811" lon="-1.63093">
        <ele>23.6</ele>
        <time>2015-08-12T19:00:33Z</time>
      </trkpt>
      <trkpt lat="47.15827" lon="-1.63078">
        <ele>23.4</ele>
        <time>2015-08-12T19:00:39Z</time>
      </trkpt>
      <trkpt lat="47.15845" lon="-1.63064">
        <ele>22.4</ele>
        <time>2015-08-12T19:00:46Z</time>
      </trkpt>
      <trkpt lat="47.15863" lon="-1.6305">
        <ele>21.3</ele>
        <time>2015-08-12T19:00:53Z</time>
      </trkpt>
      <trkpt lat="47.15879" lon="-1.63034">
        <ele>20.9</ele>
        <time>2015-08-12T19:01:01Z</time>
      </trkpt>
      <trkpt lat="47.15899" lon="-1.63021">
        <ele>20.8</ele>
        <time>2015-08-12T19:01:07Z</time>
      </trkpt>
      <trkpt lat="47.15918" lon="-1.6301">
        <ele>19.9</ele>
        <time>2015-08-12T19:01:14Z</time>
      </trkpt>
      <trkpt lat="47.15935" lon="-1.62996">
        <ele>18.4</ele>
        <time>2015-08-12T19:01:20Z</time>
      </trkpt>
      <trkpt lat="47.15951" lon="-1.62984">
        <ele>17.3</ele>
        <time>2015-08-12T19:01:25Z</time>
      </trkpt>
      <trkpt lat="47.15968" lon="-1.62973">
        <ele>17.2</ele>
        <time>2015-08-12T19:01:31Z</time>
      </trkpt>
      <trkpt lat="47.15985" lon="-1.62957">
        <ele>16.7</ele>
        <time>2015-08-12T19:01:39Z</time>
      </trkpt>
      <trkpt lat="47.16001" lon="-1.62941">
        <ele>16.1</ele>
        <time>2015-08-12T19:01:46Z</time>
      </trkpt>
      <trkpt lat="47.16015" lon="-1.62923">
        <ele>16</ele>
        <time>2015-08-12T19:01:53Z</time>
      </trkpt>
      <trkpt lat="47.16031" lon="-1.62904">
        <ele>16.2</ele>
        <time>2015-08-12T19:02:01Z</time>
      </trkpt>
      <trkpt lat="47.16046" lon="-1.62887">
        <ele>16.4</ele>
        <time>2015-08-12T19:02:10Z</time>
      </trkpt>
      <trkpt lat="47.16063" lon="-1.62874">
        <ele>16.4</ele>
        <time>2015-08-12T19:02:17Z</time>
      </trkpt>
      <trkpt lat="47.16079" lon="-1.6286">
        <ele>15.9</ele>
        <time>2015-08-12T19:02:23Z</time>
      </trkpt>
      <trkpt lat="47.16094" lon="-1.62846">
        <ele>15.3</ele>
        <time>2015-08-12T19:02:30Z</time>
      </trkpt>
      <trkpt lat="47.16112" lon="-1.62835">
        <ele>15</ele>
        <time>2015-08-12T19:02:37Z</time>
      </trkpt>
      <trkpt lat="47.16129" lon="-1.62823">
        <ele>14.7</ele>
        <time>2015-08-12T19:02:43Z</time>
      </trkpt>
      <trkpt lat="47.16145" lon="-1.62809">
        <ele>14.5</ele>
        <time>2015-08-12T19:02:50Z</time>
      </trkpt>
      <trkpt lat="47.16159" lon="-1.62793">
        <ele>14.3</ele>
        <time>2015-08-12T19:02:57Z</time>
      </trkpt>
      <trkpt lat="47.16176" lon="-1.62782">
        <ele>14.1</ele>
        <time>2015-08-12T19:03:03Z</time>
      </trkpt>
      <trkpt lat="47.16193" lon="-1.62768">
        <ele>14.2</ele>
        <time>2015-08-12T19:03:09Z</time>
      </trkpt>
      <trkpt lat="47.1621" lon="-1.62754">
        <ele>14.2</ele>
        <time>2015-08-12T19:03:17Z</time>
      </trkpt>
      <trkpt lat="47.16226" lon="-1.62739">
        <ele>14.1</ele>
        <time>2015-08-12T19:03:24Z</time>
      </trkpt>
      <trkpt lat="47.16242" lon="-1.62726">
        <ele>13.6</ele>
        <time>2015-08-12T19:03:30Z</time>
      </trkpt>
      <trkpt lat="47.16258" lon="-1.62713">
        <ele>13.4</ele>
        <time>2015-08-12T19:03:36Z</time>
      </trkpt>
      <trkpt lat="47.16274" lon="-1.62697">
        <ele>13.4</ele>
        <time>2015-08-12T19:03:44Z</time>
      </trkpt>
      <trkpt lat="47.16279" lon="-1.62668">
        <ele>14.5</ele>
        <time>2015-08-12T19:03:50Z</time>
      </trkpt>
      <trkpt lat="47.16283" lon="-1.62639">
        <ele>14.7</ele>
        <time>2015-08-12T19:03:57Z</time>
      </trkpt>
      <trkpt lat="47.16288" lon="-1.62612">
        <ele>14.9</ele>
        <time>2015-08-12T19:04:03Z</time>
      </trkpt>
      <trkpt lat="47.16298" lon="-1.62586">
        <ele>15.6</ele>
        <time>2015-08-12T19:04:10Z</time>
      </trkpt>
      <trkpt lat="47.16317" lon="-1.62578">
        <ele>16.1</ele>
        <time>2015-08-12T19:04:16Z</time>
      </trkpt>
      <trkpt lat="47.16336" lon="-1.62581">
        <ele>17.5</ele>
        <time>2015-08-12T19:04:22Z</time>
      </trkpt>
      <trkpt lat="47.16355" lon="-1.62584">
        <ele>18.9</ele>
        <time>2015-08-12T19:04:28Z</time>
      </trkpt>
      <trkpt lat="47.16374" lon="-1.62584">
        <ele>20.2</ele>
        <time>2015-08-12T19:04:35Z</time>
      </trkpt>
      <trkpt lat="47.16394" lon="-1.6258">
        <ele>21.6</ele>
        <time>2015-08-12T19:04:42Z</time>
      </trkpt>
      <trkpt lat="47.16411" lon="-1.62569">
        <ele>23.9</ele>
        <time>2015-08-12T19:04:49Z</time>
      </trkpt>
      <trkpt lat="47.16426" lon="-1.62553">
        <ele>25.2</ele>
        <time>2015-08-12T19:04:56Z</time>
      </trkpt>
      <trkpt lat="47.16445" lon="-1.62547">
        <ele>26</ele>
        <time>2015-08-12T19:05:03Z</time>
      </trkpt>
      <trkpt lat="47.16464" lon="-1.62553">
        <ele>27.8</ele>
        <time>2015-08-12T19:05:10Z</time>
      </trkpt>
      <trkpt lat="47.16484" lon="-1.6256">
        <ele>28.6</ele>
        <time>2015-08-12T19:05:17Z</time>
      </trkpt>
      <trkpt lat="47.16502" lon="-1.62568">
        <ele>28.4</ele>
        <time>2015-08-12T19:05:23Z</time>
      </trkpt>
      <trkpt lat="47.1652" lon="-1.62574">
        <ele>28.2</ele>
        <time>2015-08-12T19:05:30Z</time>
      </trkpt>
      <trkpt lat="47.16537" lon="-1.62564">
        <ele>28.7</ele>
        <time>2015-08-12T19:05:35Z</time>
      </trkpt>
      <trkpt lat="47.16552" lon="-1.62545">
        <ele>29.5</ele>
        <time>2015-08-12T19:05:41Z</time>
      </trkpt>
      <trkpt lat="47.16565" lon="-1.62524">
        <ele>30.2</ele>
        <time>2015-08-12T19:05:47Z</time>
      </trkpt>
      <trkpt lat="47.16575" lon="-1.62501">
        <ele>30.4</ele>
        <time>2015-08-12T19:05:53Z</time>
      </trkpt>
      <trkpt lat="47.16585" lon="-1.62477">
        <ele>30.9</ele>
        <time>2015-08-12T19:06:00Z</time>
      </trkpt>
      <trkpt lat="47.16593" lon="-1.62453">
        <ele>31.2</ele>
        <time>2015-08-12T19:06:06Z</time>
      </trkpt>
      <trkpt lat="47.16603" lon="-1.6243">
        <ele>31.4</ele>
        <time>2015-08-12T19:06:12Z</time>
      </trkpt>
      <trkpt lat="47.16617" lon="-1.62407">
        <ele>31.7</ele>
        <time>2015-08-12T19:06:19Z</time>
      </trkpt>
      <trkpt lat="47.1663" lon="-1.62388">
        <ele>31.4</ele>
        <time>2015-08-12T19:06:25Z</time>
      </trkpt>
      <trkpt lat="47.16644" lon="-1.62366">
        <ele>31.9</ele>
        <time>2015-08-12T19:06:32Z</time>
      </trkpt>
      <trkpt lat="47.16662" lon="-1.62358">
        <ele>32.5</ele>
        <time>2015-08-12T19:06:38Z</time>
      </trkpt>
      <trkpt lat="47.16681" lon="-1.62357">
        <ele>32.6</ele>
        <time>2015-08-12T19:06:44Z</time>
      </trkpt>
      <trkpt lat="47.16699" lon="-1.6237">
        <ele>31.9</ele>
        <time>2015-08-12T19:06:50Z</time>
      </trkpt>
      <trkpt lat="47.16714" lon="-1.6239">
        <ele>32.4</ele>
        <time>2015-08-12T19:06:57Z</time>
      </trkpt>
      <trkpt lat="47.1671" lon="-1.6242">
        <ele>31.9</ele>
        <time>2015-08-12T19:07:04Z</time>
      </trkpt>
      <trkpt lat="47.16713" lon="-1.62448">
        <ele>31.2</ele>
        <time>2015-08-12T19:07:12Z</time>
      </trkpt>
      <trkpt lat="47.16725" lon="-1.62472">
        <ele>30.5</ele>
        <time>2015-08-12T19:07:20Z</time>
      </trkpt>
      <trkpt lat="47.16726" lon="-1.62499">
        <ele>30.4</ele>
        <time>2015-08-12T19:07:26Z</time>
      </trkpt>
      <trkpt lat="47.1672" lon="-1.62526">
        <ele>31.1</ele>
        <time>2015-08-12T19:07:32Z</time>
      </trkpt>
      <trkpt lat="47.16714" lon="-1.62554">
        <ele>32.5</ele>
        <time>2015-08-12T19:07:38Z</time>
      </trkpt>
      <trkpt lat="47.16711" lon="-1.62581">
        <ele>33.6</ele>
        <time>2015-08-12T19:07:44Z</time>
      </trkpt>
      <trkpt lat="47.1671" lon="-1.6261">
        <ele>34.2</ele>
        <time>2015-08-12T19:07:51Z</time>
      </trkpt>
      <trkpt lat="47.1671" lon="-1.62636">
        <ele>33.8</ele>
        <time>2015-08-12T19:07:57Z</time>
      </trkpt>
      <trkpt lat="47.16714" lon="-1.62664">
        <ele>33.7</ele>
        <time>2015-08-12T19:08:04Z</time>
      </trkpt>
      <trkpt lat="47.16729" lon="-1.6268">
        <ele>33.5</ele>
        <time>2015-08-12T19:08:13Z</time>
      </trkpt>
      <trkpt lat="47.16746" lon="-1.62668">
        <ele>33.4</ele>
        <time>2015-08-12T19:08:20Z</time>
      </trkpt>
      <trkpt lat="47.16765" lon="-1.62671">
        <ele>32.9</ele>
        <time>2015-08-12T19:08:27Z</time>
      </trkpt>
    </trkseg>
  </trk>
</gpx>